Time;durP1;ratioP1;P1;durP2;ratioP2;P2;SDS_P1;SDS_P2;PMS_P1;PMS_P2;Temp;Humidity;BMP_temperature;BMP_pressure;BME280_temperature;BME280_humidity;BME280_pressure;Samples;Min_cycle;Max_cycle;Signal;HPM_P1;HPM_P2
2022/07/18 00:00:42;;;;;;;6.70;2.78;;;19.40;95.10;;;;;;4116695;28;20109;-82
2022/07/18 00:02:43;;;;;;;6.38;3.38;;;19.40;94.90;;;;;;4116761;28;20101;-81
2022/07/18 00:04:45;;;;;;;6.95;2.88;;;19.40;94.90;;;;;;4115933;28;20046;-81
2022/07/18 00:06:46;;;;;;;5.55;2.60;;;19.40;95.20;;;;;;4148516;28;20664;-81
2022/07/18 00:08:47;;;;;;;4.82;2.47;;;19.40;95.00;;;;;;4133555;28;20042;-81
2022/07/18 00:10:48;;;;;;;5.70;2.88;;;19.40;95.10;;;;;;4133595;28;20491;-81
2022/07/18 00:12:48;;;;;;;6.20;3.05;;;19.30;95.30;;;;;;4100253;29;20435;-81
2022/07/18 00:14:49;;;;;;;6.43;3.00;;;19.30;95.40;;;;;;4133930;28;20482;-82
2022/07/18 00:16:50;;;;;;;6.32;3.08;;;19.30;95.40;;;;;;4115812;28;20051;-82
2022/07/18 00:18:51;;;;;;;5.97;2.85;;;19.30;95.60;;;;;;4115520;28;20051;-80
2022/07/18 00:20:53;;;;;;;6.60;2.78;;;19.20;95.60;;;;;;4113542;28;20062;-82
2022/07/18 00:22:53;;;;;;;4.90;2.75;;;19.20;95.80;;;;;;4149515;28;20054;-82
2022/07/18 00:24:54;;;;;;;6.70;2.83;;;19.20;95.90;;;;;;4134122;28;20046;-81
2022/07/18 00:26:55;;;;;;;7.85;2.97;;;19.20;96.00;;;;;;4134582;28;20053;-81
2022/07/18 00:28:56;;;;;;;8.05;3.40;;;19.10;96.10;;;;;;4133745;28;20046;-81
2022/07/18 00:30:57;;;;;;;6.53;3.42;;;19.00;96.20;;;;;;4134483;28;20046;-81
2022/07/18 00:32:58;;;;;;;6.32;3.08;;;18.90;96.30;;;;;;4116729;28;20047;-81
2022/07/18 00:34:59;;;;;;;4.72;2.65;;;18.80;96.30;;;;;;4133591;28;20049;-81
2022/07/18 00:36:59;;;;;;;5.68;3.25;;;18.80;96.40;;;;;;4116671;28;20082;-81
2022/07/18 00:39:01;;;;;;;7.32;3.08;;;18.80;96.20;;;;;;4115742;28;20599;-81
2022/07/18 00:41:02;;;;;;;7.47;3.20;;;18.80;96.60;;;;;;4117890;28;20051;-80
2022/07/18 00:43:03;;;;;;;9.55;3.53;;;18.70;96.30;;;;;;4133854;28;20042;-81
2022/07/18 00:45:05;;;;;;;6.28;3.38;;;18.70;96.30;;;;;;4133660;28;20047;-81
2022/07/18 00:47:05;;;;;;;5.13;2.97;;;18.70;96.40;;;;;;4148641;28;20434;-81
2022/07/18 00:49:06;;;;;;;5.80;2.95;;;18.70;96.50;;;;;;4133257;28;20089;-81
2022/07/18 00:51:08;;;;;;;6.80;3.53;;;18.60;96.50;;;;;;4100319;29;20043;-81
2022/07/18 00:53:10;;;;;;;6.45;2.92;;;18.60;96.70;;;;;;4132988;28;20057;-81
2022/07/18 00:55:11;;;;;;;5.38;2.92;;;18.60;96.80;;;;;;4133829;28;20491;-81
2022/07/18 00:57:13;;;;;;;7.30;2.83;;;18.60;96.70;;;;;;4117031;28;20047;-80
2022/07/18 00:59:14;;;;;;;4.30;2.60;;;18.60;96.70;;;;;;4117011;28;20552;-80
2022/07/18 01:03:34;;;;;;;4.95;2.85;;;18.70;96.90;;;;;;4138857;28;20050;-80
2022/07/18 01:05:35;;;;;;;5.55;3.10;;;18.70;96.80;;;;;;4122209;28;20102;-81
2022/07/18 01:07:37;;;;;;;7.93;3.00;;;18.60;96.90;;;;;;4138233;28;20046;-81
2022/07/18 01:09:38;;;;;;;4.70;3.10;;;18.60;97.10;;;;;;4103655;29;20043;-81
2022/07/18 01:11:39;;;;;;;7.68;3.30;;;18.60;97.10;;;;;;4104128;29;20138;-81
2022/07/18 01:13:41;;;;;;;6.25;2.78;;;18.60;97.10;;;;;;4120220;28;20053;-81
2022/07/18 01:15:43;;;;;;;6.05;2.88;;;18.60;97.10;;;;;;4137566;28;20073;-81
2022/07/18 01:17:44;;;;;;;6.97;3.45;;;18.50;97.00;;;;;;4137108;28;20588;-81
2022/07/18 01:19:45;;;;;;;9.13;3.22;;;18.50;97.00;;;;;;4103768;29;20058;-81
2022/07/18 01:21:46;;;;;;;7.22;3.67;;;18.50;96.90;;;;;;4137753;28;20076;-81
2022/07/18 01:23:47;;;;;;;9.63;3.72;;;18.50;96.80;;;;;;4137672;28;20594;-81
2022/07/18 01:25:48;;;;;;;8.38;3.40;;;18.40;96.90;;;;;;4137436;28;20113;-81
2022/07/18 01:27:49;;;;;;;6.53;2.88;;;18.30;97.00;;;;;;4135757;28;20047;-81
2022/07/18 01:29:51;;;;;;;9.40;2.90;;;18.20;97.20;;;;;;4119508;28;20577;-81
2022/07/18 01:31:52;;;;;;;5.00;2.70;;;18.20;97.40;;;;;;4137705;28;20047;-81
2022/07/18 01:33:55;;;;;;;6.38;3.22;;;18.20;97.30;;;;;;4136983;28;20049;-81
2022/07/18 01:35:59;;;;;;;4.50;2.40;;;18.20;97.60;;;;;;4137504;28;20065;-81
2022/07/18 01:38:02;;;;;;;7.35;2.88;;;18.20;97.80;;;;;;4120813;28;20051;-80
2022/07/18 01:40:10;;;;;;;6.57;3.08;;;18.20;97.80;;;;;;4137233;28;20063;-80
2022/07/18 01:42:12;;;;;;;6.22;2.83;;;18.20;97.70;;;;;;4138579;28;20046;-80
2022/07/18 01:44:13;;;;;;;6.40;3.47;;;18.10;97.70;;;;;;4136601;28;20085;-81
2022/07/18 01:46:13;;;;;;;5.75;2.53;;;18.10;97.80;;;;;;4132371;28;20069;-81
2022/07/18 01:48:15;;;;;;;4.63;2.95;;;18.10;97.90;;;;;;4132430;28;20045;-81
2022/07/18 01:50:16;;;;;;;7.05;3.28;;;18.10;97.70;;;;;;4132199;28;20427;-81
2022/07/18 01:52:17;;;;;;;6.75;2.72;;;18.10;97.60;;;;;;4132453;28;20042;-82
2022/07/18 01:54:22;;;;;;;7.10;3.13;;;18.00;97.70;;;;;;4132616;28;20125;-80
2022/07/18 01:56:23;;;;;;;5.47;3.05;;;18.00;97.90;;;;;;4131976;28;20046;-81
2022/07/18 01:58:24;;;;;;;7.70;2.83;;;18.00;97.90;;;;;;4114971;28;20049;-81
2022/07/18 02:00:25;;;;;;;6.25;3.17;;;18.00;97.90;;;;;;4114804;28;20065;-80
2022/07/18 02:02:25;;;;;;;6.50;2.53;;;17.90;97.90;;;;;;4132182;28;20049;-80
2022/07/18 02:06:45;;;;;;;;;;;18.00;97.90;;;;;;4132155;28;20050;-80
2022/07/18 02:08:46;;;;;;;7.75;3.00;;;17.90;98.50;;;;;;4132009;28;19933;-80
2022/07/18 02:10:47;;;;;;;8.48;3.10;;;17.90;97.70;;;;;;4146566;28;20526;-80
2022/07/18 02:12:48;;;;;;;5.43;3.25;;;17.90;97.70;;;;;;4132183;28;20046;-80
2022/07/18 02:14:49;;;;;;;6.72;3.22;;;17.80;97.70;;;;;;4098973;29;20102;-80
2022/07/18 02:16:50;;;;;;;10.32;4.22;;;17.90;97.80;;;;;;4131837;28;20049;-81
2022/07/18 02:18:51;;;;;;;7.85;3.28;;;17.90;97.80;;;;;;4114129;28;20415;-80
2022/07/18 02:20:51;;;;;;;9.98;3.63;;;17.80;98.00;;;;;;4099948;28;20051;-81
2022/07/18 02:22:52;;;;;;;6.97;3.55;;;17.80;98.00;;;;;;4146884;28;20380;-81
2022/07/18 02:24:53;;;;;;;6.60;3.20;;;17.80;98.00;;;;;;4132582;28;20042;-82
2022/07/18 02:26:53;;;;;;;9.10;3.20;;;17.70;98.10;;;;;;4132090;28;20503;-82
2022/07/18 02:28:54;;;;;;;7.13;3.55;;;17.70;98.20;;;;;;4131737;28;20050;-81
2022/07/18 02:30:56;;;;;;;4.88;3.00;;;17.70;98.40;;;;;;4114555;28;20086;-80
2022/07/18 02:32:56;;;;;;;5.20;2.90;;;17.60;98.50;;;;;;4131358;28;20081;-80
2022/07/18 02:34:57;;;;;;;7.10;3.30;;;17.60;98.60;;;;;;4114702;28;20053;-80
2022/07/18 02:36:58;;;;;;;5.97;2.90;;;17.60;98.60;;;;;;4131558;28;20038;-80
2022/07/18 02:38:59;;;;;;;6.88;3.53;;;17.60;98.40;;;;;;4114422;28;20074;-81
2022/07/18 02:41:00;;;;;;;8.65;4.38;;;17.50;98.20;;;;;;4132079;28;20088;-80
2022/07/18 02:43:02;;;;;;;12.55;3.67;;;17.40;98.20;;;;;;4132191;28;20038;-80
2022/07/18 02:45:04;;;;;;;6.85;3.45;;;17.30;98.20;;;;;;4114768;28;20102;-80
2022/07/18 02:47:05;;;;;;;6.18;3.13;;;17.30;98.20;;;;;;4133497;28;20054;-80
2022/07/18 02:49:05;;;;;;;5.90;3.35;;;17.30;98.20;;;;;;4135996;28;20494;-81
2022/07/18 02:51:06;;;;;;;8.88;3.70;;;17.20;98.00;;;;;;4135854;28;20430;-81
2022/07/18 02:53:07;;;;;;;6.72;3.08;;;17.20;98.00;;;;;;4118546;28;20109;-81
2022/07/18 02:55:09;;;;;;;9.35;3.65;;;17.20;98.00;;;;;;4102153;29;20400;-81
2022/07/18 02:57:11;;;;;;;6.07;3.28;;;17.20;97.90;;;;;;4117937;28;20106;-82
2022/07/18 02:59:11;;;;;;;7.18;2.95;;;17.20;97.80;;;;;;4118308;28;20042;-82
2022/07/18 03:01:13;;;;;;;7.22;3.75;;;17.30;97.70;;;;;;4150298;28;20067;-81
2022/07/18 03:03:14;;;;;;;9.85;3.60;;;17.20;97.70;;;;;;4135000;28;20130;-80
2022/07/18 03:05:15;;;;;;;5.72;3.10;;;17.20;97.60;;;;;;4135059;28;20498;-80
2022/07/18 03:07:16;;;;;;;7.57;3.70;;;17.20;97.60;;;;;;4134519;28;20047;-80
2022/07/18 03:09:18;;;;;;;7.22;4.10;;;17.20;97.50;;;;;;4134854;28;20416;-81
2022/07/18 03:11:18;;;;;;;7.35;3.30;;;17.20;97.70;;;;;;4134446;28;20046;-80
2022/07/18 03:13:19;;;;;;;8.98;3.50;;;17.20;97.50;;;;;;4134708;28;20100;-80
2022/07/18 03:15:20;;;;;;;8.95;3.70;;;17.20;97.50;;;;;;4117625;28;20126;-80
2022/07/18 03:17:21;;;;;;;6.15;3.55;;;17.20;97.40;;;;;;4117906;28;20054;-80
2022/07/18 03:19:21;;;;;;;8.40;3.60;;;17.10;97.50;;;;;;4129725;28;20486;-81
2022/07/18 03:21:22;;;;;;;8.95;4.00;;;17.10;97.60;;;;;;4132977;28;20499;-80
2022/07/18 03:23:23;;;;;;;8.77;3.50;;;17.10;97.60;;;;;;4101294;28;20496;-80
2022/07/18 03:25:24;;;;;;;7.43;3.53;;;17.00;97.70;;;;;;4118821;28;20047;-81
2022/07/18 03:27:25;;;;;;;10.98;3.80;;;17.00;97.70;;;;;;4121899;28;20042;-81
2022/07/18 03:29:26;;;;;;;7.07;3.15;;;17.00;97.70;;;;;;4134672;28;20384;-80
2022/07/18 03:31:27;;;;;;;6.95;3.35;;;17.00;97.80;;;;;;4134777;28;20038;-80
2022/07/18 03:33:27;;;;;;;8.85;3.97;;;17.00;97.80;;;;;;4134636;28;20052;-81
2022/07/18 03:35:28;;;;;;;6.78;3.33;;;17.00;97.80;;;;;;4134293;28;20057;-81
2022/07/18 03:37:29;;;;;;;8.93;3.92;;;17.00;97.80;;;;;;4134597;28;20046;-81
2022/07/18 03:39:29;;;;;;;8.65;3.58;;;17.00;97.90;;;;;;4116945;28;20055;-80
2022/07/18 03:41:30;;;;;;;9.07;4.00;;;16.90;97.80;;;;;;4134804;28;20050;-80
2022/07/18 03:43:31;;;;;;;6.68;3.28;;;16.90;97.70;;;;;;4134817;28;20034;-81
2022/07/18 03:45:32;;;;;;;10.18;4.13;;;16.90;97.70;;;;;;4134764;28;20054;-80
2022/07/18 03:47:34;;;;;;;8.38;3.42;;;16.90;97.80;;;;;;4134538;28;20045;-81
2022/07/18 03:49:34;;;;;;;6.93;3.58;;;16.80;97.70;;;;;;4117048;28;20125;-82
2022/07/18 03:51:35;;;;;;;9.63;4.10;;;16.80;97.80;;;;;;4134849;28;20038;-81
2022/07/18 03:53:37;;;;;;;8.85;4.35;;;16.80;97.80;;;;;;4134984;28;20462;-81
2022/07/18 03:55:38;;;;;;;8.43;3.72;;;16.80;97.90;;;;;;4117868;28;20051;-80
2022/07/18 03:57:38;;;;;;;7.28;3.70;;;16.80;97.90;;;;;;4134909;28;20061;-81
2022/07/18 03:59:41;;;;;;;10.02;4.60;;;16.80;97.90;;;;;;4117225;28;20416;-80
2022/07/18 04:01:42;;;;;;;7.63;4.03;;;16.80;98.00;;;;;;4135592;28;20133;-81
2022/07/18 04:03:43;;;;;;;7.22;3.90;;;16.80;97.90;;;;;;4117783;28;20051;-81
2022/07/18 04:05:44;;;;;;;6.57;3.78;;;16.80;97.90;;;;;;4134254;28;20038;-81
2022/07/18 04:07:45;;;;;;;9.40;3.33;;;16.80;97.90;;;;;;4135794;28;20121;-81
2022/07/18 04:09:46;;;;;;;8.00;4.07;;;16.80;97.80;;;;;;4117889;28;20053;-81
2022/07/18 04:11:47;;;;;;;11.18;3.65;;;16.80;97.80;;;;;;4117838;28;20602;-81
2022/07/18 04:13:48;;;;;;;6.07;3.65;;;16.80;97.70;;;;;;4117541;28;20051;-81
2022/07/18 04:15:50;;;;;;;8.35;4.32;;;16.70;97.60;;;;;;4117121;28;20085;-81
2022/07/18 04:17:51;;;;;;;8.73;3.67;;;16.70;97.60;;;;;;4135154;28;20046;-81
2022/07/18 04:19:53;;;;;;;8.40;4.50;;;16.70;97.50;;;;;;4134248;28;20502;-82
2022/07/18 04:21:54;;;;;;;7.20;3.67;;;16.70;97.40;;;;;;4133885;28;20487;-81
2022/07/18 04:23:55;;;;;;;9.38;4.22;;;16.70;97.40;;;;;;4133800;28;20054;-80
2022/07/18 04:25:56;;;;;;;7.85;3.67;;;16.70;97.20;;;;;;4134137;28;20069;-80
2022/07/18 04:27:59;;;;;;;8.25;4.32;;;16.80;97.10;;;;;;4133567;28;20051;-80
2022/07/18 04:30:01;;;;;;;6.28;3.53;;;16.80;97.00;;;;;;4115646;28;20113;-81
2022/07/18 04:32:02;;;;;;;5.65;3.35;;;16.80;96.90;;;;;;4116089;28;20054;-80
2022/07/18 04:34:02;;;;;;;8.70;3.60;;;16.80;96.70;;;;;;4115629;28;20966;-80
2022/07/18 04:36:03;;;;;;;8.13;3.03;;;16.80;96.60;;;;;;4133241;28;20513;-80
2022/07/18 04:38:05;;;;;;;7.45;3.00;;;16.80;96.40;;;;;;4115936;28;20038;-80
2022/07/18 04:40:08;;;;;;;7.30;3.58;;;16.80;96.30;;;;;;4115476;28;20055;-80
2022/07/18 04:42:08;;;;;;;10.35;3.45;;;16.90;96.30;;;;;;4115674;28;20118;-80
2022/07/18 04:44:09;;;;;;;8.90;3.92;;;16.90;96.20;;;;;;4115292;28;20058;-80
2022/07/18 04:46:10;;;;;;;6.82;3.38;;;16.90;96.00;;;;;;4132350;28;20089;-80
2022/07/18 04:48:11;;;;;;;5.75;3.05;;;16.90;96.10;;;;;;4132663;28;20042;-80
2022/07/18 04:50:12;;;;;;;7.70;3.72;;;17.00;95.80;;;;;;4132640;28;20491;-81
2022/07/18 04:52:12;;;;;;;7.13;3.78;;;17.00;95.70;;;;;;4148245;28;20446;-80
2022/07/18 04:54:13;;;;;;;8.05;3.40;;;17.00;95.60;;;;;;4115365;28;20102;-80
2022/07/18 04:56:14;;;;;;;7.82;3.38;;;17.00;95.50;;;;;;4115563;28;20089;-80
2022/07/18 04:58:14;;;;;;;8.88;3.80;;;17.10;95.40;;;;;;4116038;28;20043;-81
2022/07/18 05:00:18;;;;;;;5.68;2.92;;;17.10;95.30;;;;;;4133404;28;20054;-80
2022/07/18 05:02:18;;;;;;;9.65;2.95;;;17.10;95.10;;;;;;4132944;28;20058;-81
2022/07/18 05:04:20;;;;;;;7.13;3.28;;;17.20;94.90;;;;;;4115814;28;20471;-81
2022/07/18 05:06:21;;;;;;;7.15;2.33;;;17.20;94.60;;;;;;4147168;28;20115;-81
2022/07/18 05:08:22;;;;;;;8.25;2.80;;;17.30;94.30;;;;;;4115887;28;20091;-81
2022/07/18 05:10:23;;;;;;;7.85;2.90;;;17.30;94.20;;;;;;4131901;28;20042;-81
2022/07/18 05:12:25;;;;;;;7.30;2.85;;;17.30;94.10;;;;;;4133259;28;20069;-81
2022/07/18 05:14:26;;;;;;;4.75;2.22;;;17.40;93.90;;;;;;4099232;29;20095;-81
2022/07/18 05:16:26;;;;;;;5.15;2.78;;;17.40;93.70;;;;;;4133390;28;20038;-81
2022/07/18 05:18:27;;;;;;;6.97;2.85;;;17.50;93.70;;;;;;4132787;28;20046;-81
2022/07/18 05:20:28;;;;;;;6.40;3.00;;;17.50;93.50;;;;;;4131731;28;20042;-80
2022/07/18 05:22:29;;;;;;;5.65;2.70;;;17.50;93.40;;;;;;4147625;28;20109;-80
2022/07/18 05:24:29;;;;;;;7.40;2.50;;;17.60;93.10;;;;;;4148209;28;20570;-80
2022/07/18 05:26:30;;;;;;;4.70;2.42;;;17.60;93.20;;;;;;4115532;28;20055;-80
2022/07/18 05:28:31;;;;;;;10.40;2.25;;;17.60;92.90;;;;;;4131967;28;20407;-80
2022/07/18 05:30:33;;;;;;;6.25;3.10;;;17.70;92.70;;;;;;4132351;28;20042;-80
2022/07/18 05:32:33;;;;;;;4.32;2.55;;;17.70;92.60;;;;;;4115599;28;20415;-80
2022/07/18 05:34:34;;;;;;;4.72;2.20;;;17.70;92.50;;;;;;4115676;28;20050;-81
2022/07/18 05:36:35;;;;;;;4.47;2.08;;;17.80;92.40;;;;;;4115451;28;20089;-81
2022/07/18 05:38:36;;;;;;;4.20;2.30;;;17.80;92.20;;;;;;4131716;28;20070;-80
2022/07/18 05:40:37;;;;;;;4.35;2.33;;;17.80;92.00;;;;;;4132057;28;20046;-81
2022/07/18 05:42:38;;;;;;;12.38;1.80;;;17.90;91.80;;;;;;4115006;28;20046;-82
2022/07/18 05:44:38;;;;;;;5.05;2.55;;;17.90;91.70;;;;;;4147291;28;20462;-82
2022/07/18 05:46:39;;;;;;;4.75;2.53;;;17.90;91.50;;;;;;4132074;28;20050;-81
2022/07/18 05:48:40;;;;;;;4.22;2.03;;;18.00;91.50;;;;;;4131358;28;20407;-81
2022/07/18 05:50:40;;;;;;;4.22;1.98;;;18.00;91.30;;;;;;4114985;28;20066;-81
2022/07/18 05:52:41;;;;;;;10.25;2.40;;;18.00;91.20;;;;;;4132178;28;20038;-80
2022/07/18 05:54:42;;;;;;;7.20;2.30;;;18.10;91.10;;;;;;4114828;28;20058;-80
2022/07/18 05:56:42;;;;;;;6.53;2.17;;;18.10;90.90;;;;;;4114482;28;20047;-80
2022/07/18 05:58:43;;;;;;;5.00;1.90;;;18.20;90.70;;;;;;4114889;28;20075;-81
2022/07/18 06:00:45;;;;;;;6.75;1.70;;;18.20;90.50;;;;;;4131767;28;20054;-80
2022/07/18 06:02:48;;;;;;;10.38;2.03;;;18.20;90.30;;;;;;4132134;28;20054;-81
2022/07/18 06:04:49;;;;;;;5.47;1.83;;;18.30;90.00;;;;;;4112938;28;20059;-81
2022/07/18 06:06:50;;;;;;;8.60;2.42;;;18.40;89.60;;;;;;4114107;28;20484;-81
2022/07/18 06:08:51;;;;;;;6.25;1.70;;;18.40;89.30;;;;;;4130816;28;20392;-81
2022/07/18 06:10:51;;;;;;;3.55;1.58;;;18.50;88.80;;;;;;4113504;28;20130;-81
2022/07/18 06:12:53;;;;;;;3.75;1.58;;;18.60;88.00;;;;;;4142372;28;20183;-79
2022/07/18 06:14:53;;;;;;;3.10;1.20;;;18.70;87.50;;;;;;4119116;28;20124;-81
2022/07/18 06:16:54;;;;;;;5.95;1.65;;;18.80;86.60;;;;;;4124514;28;20053;-81
2022/07/18 06:18:56;;;;;;;5.65;1.40;;;18.80;86.40;;;;;;4104636;28;20046;-81
2022/07/18 06:20:57;;;;;;;2.42;1.92;;;18.90;85.50;;;;;;4113126;28;20058;-81
2022/07/18 06:22:58;;;;;;;6.07;1.83;;;19.00;85.30;;;;;;4130345;28;20047;-81
2022/07/18 06:24:59;;;;;;;5.40;1.58;;;19.10;84.50;;;;;;4112735;28;20503;-81
2022/07/18 06:26:59;;;;;;;5.57;1.70;;;19.20;83.50;;;;;;4130740;28;20046;-81
2022/07/18 06:29:00;;;;;;;5.97;1.55;;;19.40;82.50;;;;;;4144573;28;20046;-81
2022/07/18 06:31:01;;;;;;;5.10;1.50;;;19.50;82.40;;;;;;4130830;28;20046;-81
2022/07/18 06:33:05;;;;;;;4.65;1.67;;;19.60;82.20;;;;;;4144271;28;20065;-83
2022/07/18 06:35:08;;;;;;;5.10;1.50;;;19.70;81.70;;;;;;4123144;28;20046;-86
2022/07/18 06:37:10;;;;;;;4.57;1.73;;;19.80;80.80;;;;;;4134550;28;20109;-86
2022/07/18 06:39:11;;;;;;;5.55;1.73;;;19.90;80.00;;;;;;4145042;28;20105;-87
2022/07/18 06:41:12;;;;;;;3.83;1.40;;;20.00;79.40;;;;;;4141891;28;20050;-87
2022/07/18 06:43:18;;;;;;;4.32;1.55;;;20.10;78.80;;;;;;4114516;28;20065;-87
2022/07/18 06:45:19;;;;;;;5.03;1.35;;;20.10;78.40;;;;;;4098804;28;20091;-87
2022/07/18 06:47:20;;;;;;;3.05;1.63;;;20.20;78.90;;;;;;4134307;28;20037;-86
2022/07/18 06:49:21;;;;;;;3.90;1.42;;;20.20;78.00;;;;;;4122926;28;20126;-85
2022/07/18 06:51:21;;;;;;;5.25;1.55;;;20.30;77.80;;;;;;4122827;28;20046;-85
2022/07/18 06:53:22;;;;;;;5.35;1.10;;;20.30;77.70;;;;;;4122558;28;20078;-85
2022/07/18 06:55:23;;;;;;;3.38;1.33;;;20.40;77.50;;;;;;4092113;29;20087;-85
2022/07/18 06:57:23;;;;;;;5.35;1.50;;;20.40;77.50;;;;;;4120196;28;20046;-85
2022/07/18 06:59:24;;;;;;;3.70;1.20;;;20.40;77.20;;;;;;4124418;28;20043;-85
2022/07/18 07:01:25;;;;;;;3.15;1.25;;;20.40;76.70;;;;;;4101277;28;20627;-85
2022/07/18 07:03:26;;;;;;;2.90;1.10;;;20.50;76.20;;;;;;4128003;28;20518;-85
2022/07/18 07:05:26;;;;;;;4.53;1.30;;;20.60;76.00;;;;;;4131140;28;20041;-85
2022/07/18 07:07:29;;;;;;;4.47;1.30;;;20.70;75.80;;;;;;4132585;28;20487;-86
2022/07/18 07:09:29;;;;;;;5.38;1.63;;;20.80;74.90;;;;;;4143583;28;20124;-85
2022/07/18 07:11:30;;;;;;;2.15;1.10;;;20.90;74.10;;;;;;4136410;28;20042;-84
2022/07/18 07:13:31;;;;;;;5.75;1.60;;;20.90;74.20;;;;;;4149939;28;20053;-84
2022/07/18 07:15:32;;;;;;;4.78;1.27;;;21.00;73.30;;;;;;4105050;28;20554;-85
2022/07/18 07:17:32;;;;;;;3.50;1.23;;;21.10;72.80;;;;;;4124535;28;20565;-86
2022/07/18 07:19:33;;;;;;;2.60;1.10;;;21.20;72.70;;;;;;4148830;28;20470;-85
2022/07/18 07:21:35;;;;;;;4.30;1.63;;;21.30;72.80;;;;;;4133517;28;20069;-86
2022/07/18 07:23:36;;;;;;;2.67;1.08;;;21.40;72.00;;;;;;4131543;28;20092;-86
2022/07/18 07:25:37;;;;;;;2.15;0.90;;;21.40;71.70;;;;;;4146935;28;20041;-86
2022/07/18 07:27:38;;;;;;;2.92;1.30;;;21.50;71.10;;;;;;4114218;28;20055;-86
2022/07/18 07:29:38;;;;;;;3.90;1.48;;;21.60;70.70;;;;;;4114845;28;20519;-85
2022/07/18 07:31:39;;;;;;;2.85;0.90;;;21.70;70.40;;;;;;4112096;28;20415;-86
2022/07/18 07:33:40;;;;;;;3.58;1.42;;;21.80;69.90;;;;;;4132933;28;20495;-83
2022/07/18 07:35:43;;;;;;;3.85;1.00;;;21.90;69.40;;;;;;4119496;28;20054;-83
2022/07/18 07:37:50;;;;;;;2.13;0.90;;;22.00;68.60;;;;;;4137998;28;20438;-83
2022/07/18 07:39:50;;;;;;;3.38;1.10;;;22.10;69.10;;;;;;4139416;28;20101;-84
2022/07/18 07:45:00;;;;;;;6.15;1.23;;;22.20;66.00;;;;;;4126839;28;20395;-82
2022/07/18 07:47:02;;;;;;;2.55;1.40;;;22.30;67.80;;;;;;4124400;28;20056;-83
2022/07/18 07:49:03;;;;;;;4.65;1.33;;;22.30;67.10;;;;;;4132745;28;20431;-82
2022/07/18 07:51:04;;;;;;;4.30;1.50;;;22.30;66.70;;;;;;4145789;28;20053;-83
2022/07/18 07:53:05;;;;;;;3.13;0.80;;;22.30;66.30;;;;;;4133272;28;20173;-83
2022/07/18 07:55:06;;;;;;;3.72;1.30;;;22.30;66.20;;;;;;4132126;28;20050;-83
2022/07/18 07:57:07;;;;;;;2.28;0.88;;;22.30;66.40;;;;;;4146374;28;20388;-83
2022/07/18 07:59:07;;;;;;;4.43;1.00;;;22.30;65.90;;;;;;4141006;28;20057;-83
2022/07/18 08:01:08;;;;;;;4.97;1.13;;;22.40;66.30;;;;;;4132829;28;20046;-83
2022/07/18 08:03:10;;;;;;;3.08;1.40;;;22.50;66.40;;;;;;4145610;28;20434;-84
2022/07/18 08:05:10;;;;;;;4.72;1.17;;;22.60;65.30;;;;;;4116298;28;20054;-83
2022/07/18 08:07:11;;;;;;;4.47;1.83;;;22.70;65.80;;;;;;4131203;28;20045;-84
2022/07/18 08:09:13;;;;;;;2.75;1.58;;;22.80;65.40;;;;;;4112306;28;20093;-84
2022/07/18 08:11:14;;;;;;;1.98;1.00;;;22.80;65.30;;;;;;4112139;28;20054;-83
2022/07/18 08:13:15;;;;;;;4.78;1.20;;;22.90;64.80;;;;;;4141335;28;20097;-83
2022/07/18 08:15:16;;;;;;;5.68;2.17;;;22.90;65.10;;;;;;4131790;28;20046;-83
2022/07/18 08:17:16;;;;;;;4.70;1.27;;;22.90;65.10;;;;;;4146107;28;20410;-83
2022/07/18 08:19:17;;;;;;;2.70;0.98;;;22.90;64.90;;;;;;4116497;28;20058;-83
2022/07/18 08:21:19;;;;;;;4.63;1.08;;;;;;;;;;4132200;28;20129;-83
2022/07/18 08:23:20;;;;;;;2.15;1.23;;;23.00;65.10;;;;;;4140974;28;20419;-83
2022/07/18 08:25:21;;;;;;;4.55;1.38;;;23.20;65.20;;;;;;4111901;28;20042;-83
2022/07/18 08:27:22;;;;;;;1.70;0.98;;;23.40;64.60;;;;;;4112368;28;20063;-83
2022/07/18 08:29:23;;;;;;;4.63;1.00;;;23.50;64.00;;;;;;4131239;28;20050;-82
2022/07/18 08:31:25;;;;;;;3.42;0.90;;;23.60;63.70;;;;;;4146009;28;20493;-82
2022/07/18 08:33:25;;;;;;;3.33;1.45;;;23.80;63.50;;;;;;4131905;28;20057;-83
2022/07/18 08:35:28;;;;;;;4.50;1.60;;;23.90;63.40;;;;;;4145122;28;20517;-84
2022/07/18 08:37:28;;;;;;;3.03;1.10;;;24.00;63.60;;;;;;4142060;28;20112;-83
2022/07/18 08:39:29;;;;;;;3.80;1.17;;;24.10;62.90;;;;;;4127298;28;20057;-83
2022/07/18 08:41:30;;;;;;;8.75;1.20;;;24.20;62.60;;;;;;4130718;28;20050;-81
2022/07/18 08:43:32;;;;;;;3.25;1.30;;;24.30;62.00;;;;;;4131204;28;20042;-83
2022/07/18 08:45:33;;;;;;;3.78;1.10;;;24.40;62.50;;;;;;4129598;28;20495;-83
2022/07/18 08:47:35;;;;;;;4.72;1.15;;;24.50;62.30;;;;;;4115247;28;20043;-83
2022/07/18 08:49:36;;;;;;;5.68;1.10;;;24.60;62.50;;;;;;4132844;28;20503;-83
2022/07/18 08:51:37;;;;;;;4.97;1.42;;;24.70;62.30;;;;;;4091386;29;20051;-84
2022/07/18 08:53:38;;;;;;;2.78;1.30;;;24.70;61.30;;;;;;4117860;28;20093;-83
2022/07/18 08:55:38;;;;;;;4.70;1.40;;;24.70;61.10;;;;;;4127009;28;20487;-82
2022/07/18 08:57:39;;;;;;;2.90;1.08;;;24.70;60.80;;;;;;4124476;28;20035;-83
2022/07/18 08:59:40;;;;;;;6.00;1.30;;;24.70;61.40;;;;;;4128492;28;20121;-83
2022/07/18 09:01:41;;;;;;;2.58;1.10;;;24.70;61.00;;;;;;4121059;28;20145;-82
2022/07/18 09:03:41;;;;;;;2.58;0.80;;;24.60;60.90;;;;;;4140675;28;20045;-84
2022/07/18 09:05:42;;;;;;;6.03;1.00;;;24.60;60.50;;;;;;4128378;28;20117;-83
2022/07/18 09:07:43;;;;;;;3.28;1.20;;;24.60;59.80;;;;;;4128862;28;20046;-83
2022/07/18 09:09:53;;;;;;;6.00;1.13;;;24.60;59.40;;;;;;4124654;28;20510;-84
2022/07/18 09:12:01;;;;;;;1.98;1.00;;;24.70;58.80;;;;;;4131961;28;20054;-81
2022/07/18 09:14:02;;;;;;;6.13;1.73;;;24.70;58.90;;;;;;4133839;28;20046;-82
2022/07/18 09:16:11;;;;;;;5.80;0.98;;;24.70;58.70;;;;;;4117384;28;20086;-83
2022/07/18 09:18:12;;;;;;;2.50;0.90;;;24.70;58.40;;;;;;4142677;28;20053;-82
2022/07/18 09:20:17;;;;;;;2.20;0.90;;;24.70;58.50;;;;;;4127466;28;20043;-82
2022/07/18 09:22:20;;;;;;;4.32;1.20;;;24.80;58.70;;;;;;4129624;28;20121;-81
2022/07/18 09:24:22;;;;;;;3.05;0.90;;;24.80;58.00;;;;;;4134104;28;20043;-81
2022/07/18 09:26:42;;;;;;;3.63;1.10;;;24.90;58.00;;;;;;4133784;28;20427;-81
2022/07/18 09:28:48;;;;;;;7.15;1.92;;;25.00;57.20;;;;;;4099290;29;20257;-81
2022/07/18 09:30:49;;;;;;;3.00;1.00;;;25.10;57.10;;;;;;4128869;28;20046;-82
2022/07/18 09:32:53;;;;;;;3.05;1.30;;;25.30;57.90;;;;;;4131462;28;20046;-81
2022/07/18 09:34:54;;;;;;;4.45;1.05;;;25.30;57.20;;;;;;4131968;28;20440;-82
2022/07/18 09:36:56;;;;;;;3.45;1.20;;;25.30;56.60;;;;;;4129734;28;20473;-81
2022/07/18 09:38:57;;;;;;;4.20;1.13;;;25.40;56.40;;;;;;4129763;28;20083;-82
2022/07/18 09:40:58;;;;;;;3.40;1.00;;;25.40;56.30;;;;;;4131315;28;20109;-82
2022/07/18 09:43:04;;;;;;;3.03;1.20;;;25.50;55.80;;;;;;4141879;28;20100;-82
2022/07/18 09:45:05;;;;;;;6.50;1.50;;;25.50;55.50;;;;;;4131094;28;20050;-83
2022/07/18 09:47:07;;;;;;;1.40;0.90;;;25.60;55.80;;;;;;4145585;28;20050;-82
2022/07/18 09:49:09;;;;;;;3.28;1.00;;;25.70;55.40;;;;;;4124323;28;20073;-82
2022/07/18 09:51:10;;;;;;;4.28;0.90;;;25.80;55.70;;;;;;4138127;28;20049;-82
2022/07/18 09:53:19;;;;;;;4.78;1.35;;;25.90;55.50;;;;;;4130282;28;20046;-81
2022/07/18 09:55:20;;;;;;;3.38;1.05;;;25.90;54.40;;;;;;4129263;28;20090;-82
2022/07/18 09:57:26;;;;;;;7.75;1.35;;;26.00;55.70;;;;;;4130713;28;20049;-81
2022/07/18 09:59:27;;;;;;;15.32;3.05;;;26.20;56.60;;;;;;4124959;28;20113;-81
2022/07/18 10:01:28;;;;;;;2.80;1.08;;;26.30;56.10;;;;;;4123452;28;20510;-82
2022/07/18 10:03:29;;;;;;;7.97;1.17;;;26.40;55.30;;;;;;4107906;28;20477;-82
2022/07/18 10:05:33;;;;;;;3.15;0.93;;;26.60;55.00;;;;;;4118172;28;20043;-83
2022/07/18 10:07:34;;;;;;;4.80;1.10;;;26.70;54.20;;;;;;4128662;28;20082;-81
2022/07/18 10:09:37;;;;;;;5.22;1.23;;;26.80;53.40;;;;;;4130922;28;20042;-81
2022/07/18 10:11:39;;;;;;;4.68;0.90;;;26.90;52.70;;;;;;4119193;28;20125;-81
2022/07/18 10:13:39;;;;;;;4.95;0.90;;;27.00;52.90;;;;;;4143895;28;20434;-81
2022/07/18 10:15:42;;;;;;;3.53;1.30;;;27.10;51.10;;;;;;4130572;28;20054;-81
2022/07/18 10:17:43;;;;;;;2.17;0.90;;;27.20;51.10;;;;;;4128529;28;20046;-82
2022/07/18 10:19:44;;;;;;;3.33;1.05;;;27.20;51.20;;;;;;4120317;28;20395;-81
2022/07/18 10:21:48;;;;;;;3.28;1.33;;;27.30;51.30;;;;;;4148487;28;20049;-82
2022/07/18 10:23:51;;;;;;;4.65;1.23;;;27.50;51.30;;;;;;4095758;29;20074;-82
2022/07/18 10:26:14;;;;;;;6.20;1.02;;;27.60;51.60;;;;;;4106934;28;20083;-82
2022/07/18 10:28:15;;;;;;;4.93;1.35;;;27.60;49.00;;;;;;4128903;28;20049;-81
2022/07/18 10:30:16;;;;;;;3.20;1.20;;;27.70;50.60;;;;;;4129229;28;20075;-81
2022/07/18 10:32:33;;;;;;;4.05;1.50;;;27.80;50.10;;;;;;4120160;28;20431;-82
2022/07/18 10:34:36;;;;;;;3.22;1.60;;;27.90;49.80;;;;;;4125119;28;20054;-81
2022/07/18 10:36:39;;;;;;;8.35;1.95;;;28.00;49.40;;;;;;4113510;28;20046;-81
2022/07/18 10:39:15;;;;;;;2.58;1.60;;;28.00;49.20;;;;;;4125136;28;20496;-80
2022/07/18 10:41:17;;;;;;;4.70;1.42;;;28.10;48.20;;;;;;4138847;28;20050;-81